sensor_id;sensor_type;location;lat;lon;timestamp;P1;durP1;ratioP1;P2;durP2;ratioP2
14858;SDS011;7521;51.700;6.874;2023-02-28T00:01:37;8.68;;;4.47;;
14858;SDS011;7521;51.700;6.874;2023-02-28T00:04:42;7.93;;;4.40;;
14858;SDS011;7521;51.700;6.874;2023-02-28T00:07:47;8.73;;;4.05;;
14858;SDS011;7521;51.700;6.874;2023-02-28T00:10:53;11.23;;;4.50;;
14858;SDS011;7521;51.700;6.874;2023-02-28T00:13:58;8.80;;;4.07;;
14858;SDS011;7521;51.700;6.874;2023-02-28T00:17:03;10.77;;;4.83;;
14858;SDS011;7521;51.700;6.874;2023-02-28T00:20:08;8.20;;;4.32;;
14858;SDS011;7521;51.700;6.874;2023-02-28T00:23:16;8.20;;;4.43;;
14858;SDS011;7521;51.700;6.874;2023-02-28T00:26:21;8.32;;;4.45;;
14858;SDS011;7521;51.700;6.874;2023-02-28T00:29:26;7.17;;;4.30;;
14858;SDS011;7521;51.700;6.874;2023-02-28T00:32:32;7.53;;;4.55;;
14858;SDS011;7521;51.700;6.874;2023-02-28T00:35:37;10.43;;;4.47;;
14858;SDS011;7521;51.700;6.874;2023-02-28T00:38:42;9.65;;;4.60;;
14858;SDS011;7521;51.700;6.874;2023-02-28T00:41:48;7.17;;;3.83;;
14858;SDS011;7521;51.700;6.874;2023-02-28T00:44:53;8.00;;;3.97;;
14858;SDS011;7521;51.700;6.874;2023-02-28T00:47:59;8.87;;;5.07;;
14858;SDS011;7521;51.700;6.874;2023-02-28T00:51:04;8.97;;;4.47;;
14858;SDS011;7521;51.700;6.874;2023-02-28T00:54:09;8.03;;;4.80;;
14858;SDS011;7521;51.700;6.874;2023-02-28T00:57:14;6.57;;;4.28;;
14858;SDS011;7521;51.700;6.874;2023-02-28T01:00:20;7.22;;;3.92;;
14858;SDS011;7521;51.700;6.874;2023-02-28T01:03:25;8.90;;;4.40;;
14858;SDS011;7521;51.700;6.874;2023-02-28T01:06:30;7.23;;;3.80;;
14858;SDS011;7521;51.700;6.874;2023-02-28T01:09:36;20.50;;;3.97;;
14858;SDS011;7521;51.700;6.874;2023-02-28T01:12:41;7.93;;;4.00;;
14858;SDS011;7521;51.700;6.874;2023-02-28T01:15:50;8.57;;;3.90;;
14858;SDS011;7521;51.700;6.874;2023-02-28T01:18:56;9.13;;;4.30;;
14858;SDS011;7521;51.700;6.874;2023-02-28T01:22:02;8.50;;;3.70;;
14858;SDS011;7521;51.700;6.874;2023-02-28T01:25:07;7.17;;;3.77;;
14858;SDS011;7521;51.700;6.874;2023-02-28T01:28:12;6.13;;;3.83;;
14858;SDS011;7521;51.700;6.874;2023-02-28T01:31:18;7.25;;;3.97;;
14858;SDS011;7521;51.700;6.874;2023-02-28T01:34:23;8.00;;;3.60;;
14858;SDS011;7521;51.700;6.874;2023-02-28T01:37:28;5.37;;;3.30;;
14858;SDS011;7521;51.700;6.874;2023-02-28T01:40:33;7.63;;;3.40;;
14858;SDS011;7521;51.700;6.874;2023-02-28T01:46:44;5.60;;;3.15;;
14858;SDS011;7521;51.700;6.874;2023-02-28T01:49:49;5.53;;;2.80;;
14858;SDS011;7521;51.700;6.874;2023-02-28T01:52:57;7.27;;;3.27;;
14858;SDS011;7521;51.700;6.874;2023-02-28T01:56:05;7.63;;;3.50;;
14858;SDS011;7521;51.700;6.874;2023-02-28T01:59:12;4.87;;;3.30;;
14858;SDS011;7521;51.700;6.874;2023-02-28T02:02:19;4.20;;;2.97;;
14858;SDS011;7521;51.700;6.874;2023-02-28T02:05:25;6.57;;;3.63;;
14858;SDS011;7521;51.700;6.874;2023-02-28T02:08:31;6.73;;;3.10;;
14858;SDS011;7521;51.700;6.874;2023-02-28T02:11:36;4.17;;;3.07;;
14858;SDS011;7521;51.700;6.874;2023-02-28T02:14:55;4.33;;;2.80;;
14858;SDS011;7521;51.700;6.874;2023-02-28T02:18:09;5.53;;;3.00;;
14858;SDS011;7521;51.700;6.874;2023-02-28T02:31:18;4.95;;;2.60;;
14858;SDS011;7521;51.700;6.874;2023-02-28T02:37:41;3.57;;;2.53;;
14858;SDS011;7521;51.700;6.874;2023-02-28T02:44:07;8.30;;;3.20;;
14858;SDS011;7521;51.700;6.874;2023-02-28T02:47:16;6.23;;;2.63;;
14858;SDS011;7521;51.700;6.874;2023-02-28T02:50:24;4.47;;;2.83;;
14858;SDS011;7521;51.700;6.874;2023-02-28T02:53:32;6.47;;;2.63;;
14858;SDS011;7521;51.700;6.874;2023-02-28T02:56:39;6.47;;;2.97;;
14858;SDS011;7521;51.700;6.874;2023-02-28T02:59:46;5.03;;;3.10;;
14858;SDS011;7521;51.700;6.874;2023-02-28T03:02:54;6.67;;;3.17;;
14858;SDS011;7521;51.700;6.874;2023-02-28T03:06:00;5.07;;;3.07;;
14858;SDS011;7521;51.700;6.874;2023-02-28T03:09:06;4.57;;;3.13;;
14858;SDS011;7521;51.700;6.874;2023-02-28T03:12:11;6.27;;;3.10;;
14858;SDS011;7521;51.700;6.874;2023-02-28T03:15:19;9.27;;;3.00;;
14858;SDS011;7521;51.700;6.874;2023-02-28T03:21:43;7.53;;;3.47;;
14858;SDS011;7521;51.700;6.874;2023-02-28T03:24:54;4.87;;;3.07;;
14858;SDS011;7521;51.700;6.874;2023-02-28T03:28:04;4.63;;;3.10;;
14858;SDS011;7521;51.700;6.874;2023-02-28T03:31:12;5.23;;;3.20;;
14858;SDS011;7521;51.700;6.874;2023-02-28T03:34:24;4.73;;;2.97;;
14858;SDS011;7521;51.700;6.874;2023-02-28T03:37:31;8.13;;;3.83;;
14858;SDS011;7521;51.700;6.874;2023-02-28T03:40:42;6.27;;;2.80;;
14858;SDS011;7521;51.700;6.874;2023-02-28T03:43:50;6.60;;;3.83;;
14858;SDS011;7521;51.700;6.874;2023-02-28T03:46:58;4.87;;;2.93;;
14858;SDS011;7521;51.700;6.874;2023-02-28T03:50:07;5.67;;;3.03;;
14858;SDS011;7521;51.700;6.874;2023-02-28T03:53:14;4.97;;;2.70;;
14858;SDS011;7521;51.700;6.874;2023-02-28T03:56:22;4.80;;;3.10;;
14858;SDS011;7521;51.700;6.874;2023-02-28T04:00:03;5.87;;;3.60;;
14858;SDS011;7521;51.700;6.874;2023-02-28T04:02:59;8.83;;;3.63;;
14858;SDS011;7521;51.700;6.874;2023-02-28T04:06:06;4.30;;;3.03;;
14858;SDS011;7521;51.700;6.874;2023-02-28T04:09:13;4.90;;;3.40;;
14858;SDS011;7521;51.700;6.874;2023-02-28T04:12:18;5.87;;;3.23;;
14858;SDS011;7521;51.700;6.874;2023-02-28T04:15:23;8.02;;;3.50;;
14858;SDS011;7521;51.700;6.874;2023-02-28T04:18:29;5.37;;;3.57;;
14858;SDS011;7521;51.700;6.874;2023-02-28T04:21:36;4.90;;;3.88;;
14858;SDS011;7521;51.700;6.874;2023-02-28T04:24:41;10.23;;;3.83;;
14858;SDS011;7521;51.700;6.874;2023-02-28T04:27:46;8.50;;;3.97;;
14858;SDS011;7521;51.700;6.874;2023-02-28T04:30:58;4.90;;;3.80;;
14858;SDS011;7521;51.700;6.874;2023-02-28T04:34:04;5.43;;;3.90;;
14858;SDS011;7521;51.700;6.874;2023-02-28T04:37:09;4.90;;;3.50;;
14858;SDS011;7521;51.700;6.874;2023-02-28T04:40:14;6.47;;;3.10;;
14858;SDS011;7521;51.700;6.874;2023-02-28T04:43:19;7.27;;;3.53;;
14858;SDS011;7521;51.700;6.874;2023-02-28T04:46:24;6.20;;;3.33;;
14858;SDS011;7521;51.700;6.874;2023-02-28T04:49:30;8.43;;;3.33;;
14858;SDS011;7521;51.700;6.874;2023-02-28T04:52:35;4.72;;;3.00;;
14858;SDS011;7521;51.700;6.874;2023-02-28T04:55:40;4.38;;;3.28;;
14858;SDS011;7521;51.700;6.874;2023-02-28T04:58:45;5.67;;;3.40;;
14858;SDS011;7521;51.700;6.874;2023-02-28T05:01:51;5.10;;;3.30;;
14858;SDS011;7521;51.700;6.874;2023-02-28T05:04:56;5.97;;;2.95;;
14858;SDS011;7521;51.700;6.874;2023-02-28T05:08:01;6.90;;;3.20;;
14858;SDS011;7521;51.700;6.874;2023-02-28T05:11:08;4.67;;;3.00;;
14858;SDS011;7521;51.700;6.874;2023-02-28T05:14:16;5.83;;;3.00;;
14858;SDS011;7521;51.700;6.874;2023-02-28T05:17:21;5.03;;;2.80;;
14858;SDS011;7521;51.700;6.874;2023-02-28T05:20:27;5.97;;;2.88;;
14858;SDS011;7521;51.700;6.874;2023-02-28T05:23:32;7.00;;;3.33;;
14858;SDS011;7521;51.700;6.874;2023-02-28T05:26:41;6.20;;;3.90;;
14858;SDS011;7521;51.700;6.874;2023-02-28T05:29:46;8.57;;;3.27;;
14858;SDS011;7521;51.700;6.874;2023-02-28T05:32:51;7.43;;;3.33;;
14858;SDS011;7521;51.700;6.874;2023-02-28T05:35:57;4.30;;;3.10;;
14858;SDS011;7521;51.700;6.874;2023-02-28T05:39:02;6.32;;;3.55;;
14858;SDS011;7521;51.700;6.874;2023-02-28T05:42:08;5.53;;;3.27;;
14858;SDS011;7521;51.700;6.874;2023-02-28T05:45:14;4.93;;;2.93;;
14858;SDS011;7521;51.700;6.874;2023-02-28T05:48:19;6.07;;;3.53;;
14858;SDS011;7521;51.700;6.874;2023-02-28T05:51:24;6.03;;;3.40;;
14858;SDS011;7521;51.700;6.874;2023-02-28T05:54:29;5.30;;;3.08;;
14858;SDS011;7521;51.700;6.874;2023-02-28T05:57:34;5.90;;;3.33;;
14858;SDS011;7521;51.700;6.874;2023-02-28T06:00:39;7.40;;;3.22;;
14858;SDS011;7521;51.700;6.874;2023-02-28T06:03:45;5.72;;;3.38;;
14858;SDS011;7521;51.700;6.874;2023-02-28T06:06:50;4.20;;;2.58;;
14858;SDS011;7521;51.700;6.874;2023-02-28T06:09:55;4.13;;;3.00;;
14858;SDS011;7521;51.700;6.874;2023-02-28T06:13:01;5.97;;;2.97;;
14858;SDS011;7521;51.700;6.874;2023-02-28T06:16:08;3.87;;;2.70;;
14858;SDS011;7521;51.700;6.874;2023-02-28T06:19:14;5.30;;;2.90;;
14858;SDS011;7521;51.700;6.874;2023-02-28T06:22:20;3.93;;;2.93;;
14858;SDS011;7521;51.700;6.874;2023-02-28T06:25:26;6.85;;;2.97;;
14858;SDS011;7521;51.700;6.874;2023-02-28T06:28:31;5.53;;;3.10;;
14858;SDS011;7521;51.700;6.874;2023-02-28T06:31:36;7.83;;;3.50;;
14858;SDS011;7521;51.700;6.874;2023-02-28T06:34:43;5.27;;;3.23;;
14858;SDS011;7521;51.700;6.874;2023-02-28T06:37:48;6.05;;;3.40;;
14858;SDS011;7521;51.700;6.874;2023-02-28T06:40:54;7.10;;;3.63;;
14858;SDS011;7521;51.700;6.874;2023-02-28T06:43:59;6.07;;;3.20;;
14858;SDS011;7521;51.700;6.874;2023-02-28T06:47:05;5.27;;;3.13;;
14858;SDS011;7521;51.700;6.874;2023-02-28T06:50:11;9.80;;;3.77;;
14858;SDS011;7521;51.700;6.874;2023-02-28T06:53:16;8.67;;;3.53;;
14858;SDS011;7521;51.700;6.874;2023-02-28T06:56:22;7.93;;;3.47;;
14858;SDS011;7521;51.700;6.874;2023-02-28T06:59:27;10.88;;;3.92;;
14858;SDS011;7521;51.700;6.874;2023-02-28T07:02:32;5.53;;;3.38;;
14858;SDS011;7521;51.700;6.874;2023-02-28T07:05:38;5.93;;;3.23;;
14858;SDS011;7521;51.700;6.874;2023-02-28T07:08:43;4.80;;;3.37;;
14858;SDS011;7521;51.700;6.874;2023-02-28T07:11:49;5.67;;;3.63;;
14858;SDS011;7521;51.700;6.874;2023-02-28T07:14:54;6.97;;;3.03;;
14858;SDS011;7521;51.700;6.874;2023-02-28T07:18:00;4.37;;;2.93;;
14858;SDS011;7521;51.700;6.874;2023-02-28T07:21:06;5.13;;;3.53;;
14858;SDS011;7521;51.700;6.874;2023-02-28T07:24:12;5.37;;;3.10;;
14858;SDS011;7521;51.700;6.874;2023-02-28T07:27:20;5.97;;;3.80;;
14858;SDS011;7521;51.700;6.874;2023-02-28T07:30:30;9.20;;;3.63;;
14858;SDS011;7521;51.700;6.874;2023-02-28T07:33:35;4.97;;;3.53;;
14858;SDS011;7521;51.700;6.874;2023-02-28T07:36:40;6.67;;;3.17;;
14858;SDS011;7521;51.700;6.874;2023-02-28T07:39:46;7.25;;;2.97;;
14858;SDS011;7521;51.700;6.874;2023-02-28T07:42:51;6.20;;;3.30;;
14858;SDS011;7521;51.700;6.874;2023-02-28T07:46:00;8.00;;;3.00;;
14858;SDS011;7521;51.700;6.874;2023-02-28T07:49:06;4.13;;;2.77;;
14858;SDS011;7521;51.700;6.874;2023-02-28T07:52:11;4.10;;;3.00;;
14858;SDS011;7521;51.700;6.874;2023-02-28T07:55:16;5.00;;;2.85;;
14858;SDS011;7521;51.700;6.874;2023-02-28T07:58:21;5.00;;;3.07;;
14858;SDS011;7521;51.700;6.874;2023-02-28T08:01:26;4.70;;;2.75;;
14858;SDS011;7521;51.700;6.874;2023-02-28T08:04:32;4.88;;;2.53;;
14858;SDS011;7521;51.700;6.874;2023-02-28T08:07:37;7.50;;;2.57;;
14858;SDS011;7521;51.700;6.874;2023-02-28T08:10:42;6.47;;;3.00;;
14858;SDS011;7521;51.700;6.874;2023-02-28T08:13:47;6.23;;;2.70;;
14858;SDS011;7521;51.700;6.874;2023-02-28T08:16:52;4.35;;;2.60;;
14858;SDS011;7521;51.700;6.874;2023-02-28T08:19:58;3.85;;;2.60;;
14858;SDS011;7521;51.700;6.874;2023-02-28T08:23:03;3.42;;;2.50;;
14858;SDS011;7521;51.700;6.874;2023-02-28T08:26:08;3.83;;;2.30;;
14858;SDS011;7521;51.700;6.874;2023-02-28T08:29:13;4.32;;;2.42;;
14858;SDS011;7521;51.700;6.874;2023-02-28T08:32:18;4.93;;;2.25;;
14858;SDS011;7521;51.700;6.874;2023-02-28T08:35:23;5.05;;;2.40;;
14858;SDS011;7521;51.700;6.874;2023-02-28T08:38:29;4.17;;;1.70;;
14858;SDS011;7521;51.700;6.874;2023-02-28T08:41:34;5.00;;;2.13;;
14858;SDS011;7521;51.700;6.874;2023-02-28T08:44:39;4.47;;;2.07;;
14858;SDS011;7521;51.700;6.874;2023-02-28T08:47:45;3.63;;;2.10;;
14858;SDS011;7521;51.700;6.874;2023-02-28T08:51:01;3.03;;;1.95;;
14858;SDS011;7521;51.700;6.874;2023-02-28T08:54:07;3.27;;;1.87;;
14858;SDS011;7521;51.700;6.874;2023-02-28T08:57:13;3.77;;;2.20;;
14858;SDS011;7521;51.700;6.874;2023-02-28T09:00:18;3.47;;;1.80;;
14858;SDS011;7521;51.700;6.874;2023-02-28T09:03:24;2.10;;;1.67;;
14858;SDS011;7521;51.700;6.874;2023-02-28T09:06:29;3.00;;;1.40;;
14858;SDS011;7521;51.700;6.874;2023-02-28T09:09:34;3.08;;;1.80;;
14858;SDS011;7521;51.700;6.874;2023-02-28T09:12:39;3.70;;;1.57;;
14858;SDS011;7521;51.700;6.874;2023-02-28T09:15:44;2.67;;;1.50;;
14858;SDS011;7521;51.700;6.874;2023-02-28T09:18:50;2.03;;;1.13;;
14858;SDS011;7521;51.700;6.874;2023-02-28T09:21:55;2.13;;;1.33;;
14858;SDS011;7521;51.700;6.874;2023-02-28T09:25:00;3.37;;;1.63;;
14858;SDS011;7521;51.700;6.874;2023-02-28T09:28:05;5.53;;;1.40;;
14858;SDS011;7521;51.700;6.874;2023-02-28T09:31:14;5.68;;;1.50;;
14858;SDS011;7521;51.700;6.874;2023-02-28T09:34:19;2.20;;;1.40;;
14858;SDS011;7521;51.700;6.874;2023-02-28T09:37:25;1.60;;;1.20;;
14858;SDS011;7521;51.700;6.874;2023-02-28T09:43:59;2.50;;;1.40;;
14858;SDS011;7521;51.700;6.874;2023-02-28T09:50:19;1.93;;;1.20;;
14858;SDS011;7521;51.700;6.874;2023-02-28T09:53:27;4.43;;;1.27;;
14858;SDS011;7521;51.700;6.874;2023-02-28T09:56:39;2.33;;;1.20;;
14858;SDS011;7521;51.700;6.874;2023-02-28T09:59:54;3.33;;;1.30;;
14858;SDS011;7521;51.700;6.874;2023-02-28T10:06:11;1.70;;;0.98;;
14858;SDS011;7521;51.700;6.874;2023-02-28T10:09:19;3.07;;;1.30;;
14858;SDS011;7521;51.700;6.874;2023-02-28T10:12:27;1.77;;;1.13;;
14858;SDS011;7521;51.700;6.874;2023-02-28T10:15:33;2.57;;;1.30;;
14858;SDS011;7521;51.700;6.874;2023-02-28T10:18:47;2.10;;;1.30;;
14858;SDS011;7521;51.700;6.874;2023-02-28T10:25:18;2.13;;;1.50;;
14858;SDS011;7521;51.700;6.874;2023-02-28T10:28:24;3.13;;;1.60;;
14858;SDS011;7521;51.700;6.874;2023-02-28T10:31:30;2.33;;;1.27;;
14858;SDS011;7521;51.700;6.874;2023-02-28T10:34:35;3.00;;;1.80;;
14858;SDS011;7521;51.700;6.874;2023-02-28T10:37:43;3.53;;;1.30;;
14858;SDS011;7521;51.700;6.874;2023-02-28T10:40:48;2.30;;;1.30;;
14858;SDS011;7521;51.700;6.874;2023-02-28T10:44:11;1.73;;;1.10;;
14858;SDS011;7521;51.700;6.874;2023-02-28T10:47:17;2.47;;;1.20;;
14858;SDS011;7521;51.700;6.874;2023-02-28T10:54:05;2.93;;;1.40;;
14858;SDS011;7521;51.700;6.874;2023-02-28T10:57:08;3.00;;;1.67;;
14858;SDS011;7521;51.700;6.874;2023-02-28T11:00:18;3.90;;;1.70;;
14858;SDS011;7521;51.700;6.874;2023-02-28T11:06:35;2.20;;;1.43;;
14858;SDS011;7521;51.700;6.874;2023-02-28T11:09:40;2.87;;;1.90;;
14858;SDS011;7521;51.700;6.874;2023-02-28T11:12:46;3.77;;;1.50;;
14858;SDS011;7521;51.700;6.874;2023-02-28T11:15:58;2.80;;;1.30;;
14858;SDS011;7521;51.700;6.874;2023-02-28T11:19:04;2.30;;;1.30;;
14858;SDS011;7521;51.700;6.874;2023-02-28T11:22:11;3.60;;;1.90;;
14858;SDS011;7521;51.700;6.874;2023-02-28T11:25:37;2.43;;;1.73;;
14858;SDS011;7521;51.700;6.874;2023-02-28T11:28:43;5.33;;;1.90;;
14858;SDS011;7521;51.700;6.874;2023-02-28T11:32:33;1.80;;;1.50;;
14858;SDS011;7521;51.700;6.874;2023-02-28T11:35:15;2.10;;;1.60;;
14858;SDS011;7521;51.700;6.874;2023-02-28T11:38:21;3.73;;;1.97;;
14858;SDS011;7521;51.700;6.874;2023-02-28T11:41:50;3.00;;;2.00;;
14858;SDS011;7521;51.700;6.874;2023-02-28T11:52:02;6.43;;;1.80;;
14858;SDS011;7521;51.700;6.874;2023-02-28T11:55:32;3.97;;;1.50;;
14858;SDS011;7521;51.700;6.874;2023-02-28T11:58:49;3.30;;;1.80;;
14858;SDS011;7521;51.700;6.874;2023-02-28T12:05:18;2.00;;;1.60;;
14858;SDS011;7521;51.700;6.874;2023-02-28T12:09:10;2.37;;;1.70;;
14858;SDS011;7521;51.700;6.874;2023-02-28T12:19:13;2.47;;;1.93;;
14858;SDS011;7521;51.700;6.874;2023-02-28T12:28:12;5.93;;;2.50;;
14858;SDS011;7521;51.700;6.874;2023-02-28T12:31:25;2.27;;;1.80;;
14858;SDS011;7521;51.700;6.874;2023-02-28T12:34:33;2.77;;;1.87;;
14858;SDS011;7521;51.700;6.874;2023-02-28T12:37:49;3.87;;;2.40;;
14858;SDS011;7521;51.700;6.874;2023-02-28T12:41:02;3.53;;;2.23;;
14858;SDS011;7521;51.700;6.874;2023-02-28T12:44:09;3.63;;;2.20;;
14858;SDS011;7521;51.700;6.874;2023-02-28T12:47:17;3.17;;;1.80;;
14858;SDS011;7521;51.700;6.874;2023-02-28T12:50:22;2.30;;;1.90;;
14858;SDS011;7521;51.700;6.874;2023-02-28T12:53:45;2.80;;;2.03;;
14858;SDS011;7521;51.700;6.874;2023-02-28T13:00:13;2.45;;;1.70;;
14858;SDS011;7521;51.700;6.874;2023-02-28T13:06:35;4.55;;;1.88;;
14858;SDS011;7521;51.700;6.874;2023-02-28T13:09:51;2.53;;;1.67;;
14858;SDS011;7521;51.700;6.874;2023-02-28T13:12:56;3.27;;;1.80;;
14858;SDS011;7521;51.700;6.874;2023-02-28T13:19:08;4.45;;;2.33;;
14858;SDS011;7521;51.700;6.874;2023-02-28T13:22:35;4.27;;;2.20;;
14858;SDS011;7521;51.700;6.874;2023-02-28T13:25:49;3.37;;;1.90;;
14858;SDS011;7521;51.700;6.874;2023-02-28T13:28:59;3.30;;;1.47;;
14858;SDS011;7521;51.700;6.874;2023-02-28T13:35:34;2.30;;;1.70;;
14858;SDS011;7521;51.700;6.874;2023-02-28T13:38:43;2.43;;;1.70;;
14858;SDS011;7521;51.700;6.874;2023-02-28T13:41:48;6.73;;;2.20;;
14858;SDS011;7521;51.700;6.874;2023-02-28T13:48:15;2.03;;;1.50;;
14858;SDS011;7521;51.700;6.874;2023-02-28T13:51:43;1.97;;;1.77;;
14858;SDS011;7521;51.700;6.874;2023-02-28T14:01:21;4.03;;;2.10;;
14858;SDS011;7521;51.700;6.874;2023-02-28T14:04:41;3.70;;;1.90;;
14858;SDS011;7521;51.700;6.874;2023-02-28T14:07:53;2.30;;;2.10;;
14858;SDS011;7521;51.700;6.874;2023-02-28T14:11:04;3.00;;;2.10;;
14858;SDS011;7521;51.700;6.874;2023-02-28T14:14:53;2.77;;;1.87;;
14858;SDS011;7521;51.700;6.874;2023-02-28T14:17:35;2.80;;;1.77;;
14858;SDS011;7521;51.700;6.874;2023-02-28T14:20:42;2.97;;;2.13;;
14858;SDS011;7521;51.700;6.874;2023-02-28T14:26:56;3.20;;;2.00;;
14858;SDS011;7521;51.700;6.874;2023-02-28T14:36:37;3.38;;;2.28;;
14858;SDS011;7521;51.700;6.874;2023-02-28T14:39:44;2.87;;;2.00;;
14858;SDS011;7521;51.700;6.874;2023-02-28T14:42:59;4.50;;;2.23;;
14858;SDS011;7521;51.700;6.874;2023-02-28T14:46:05;3.70;;;2.23;;
14858;SDS011;7521;51.700;6.874;2023-02-28T14:49:28;3.97;;;2.53;;
14858;SDS011;7521;51.700;6.874;2023-02-28T14:52:33;4.67;;;2.40;;
14858;SDS011;7521;51.700;6.874;2023-02-28T14:55:43;3.50;;;2.87;;
14858;SDS011;7521;51.700;6.874;2023-02-28T14:58:52;4.90;;;2.40;;
14858;SDS011;7521;51.700;6.874;2023-02-28T15:02:20;2.97;;;2.00;;
14858;SDS011;7521;51.700;6.874;2023-02-28T15:05:31;2.87;;;2.20;;
14858;SDS011;7521;51.700;6.874;2023-02-28T15:08:36;4.00;;;2.10;;
14858;SDS011;7521;51.700;6.874;2023-02-28T15:11:41;3.97;;;2.45;;
14858;SDS011;7521;51.700;6.874;2023-02-28T15:14:48;5.03;;;2.43;;
14858;SDS011;7521;51.700;6.874;2023-02-28T15:17:54;3.90;;;2.27;;
14858;SDS011;7521;51.700;6.874;2023-02-28T15:21:02;5.23;;;2.37;;
14858;SDS011;7521;51.700;6.874;2023-02-28T15:27:35;5.33;;;2.60;;
14858;SDS011;7521;51.700;6.874;2023-02-28T15:30:39;3.50;;;2.87;;
14858;SDS011;7521;51.700;6.874;2023-02-28T15:33:58;4.20;;;2.53;;
14858;SDS011;7521;51.700;6.874;2023-02-28T15:40:36;3.73;;;2.60;;
14858;SDS011;7521;51.700;6.874;2023-02-28T15:43:42;3.67;;;2.30;;
14858;SDS011;7521;51.700;6.874;2023-02-28T15:50:08;3.90;;;2.27;;
14858;SDS011;7521;51.700;6.874;2023-02-28T15:53:16;3.67;;;2.27;;
14858;SDS011;7521;51.700;6.874;2023-02-28T15:59:28;4.93;;;1.87;;
14858;SDS011;7521;51.700;6.874;2023-02-28T16:02:35;2.63;;;2.10;;
14858;SDS011;7521;51.700;6.874;2023-02-28T16:05:40;3.80;;;2.33;;
14858;SDS011;7521;51.700;6.874;2023-02-28T16:08:45;2.87;;;1.80;;
14858;SDS011;7521;51.700;6.874;2023-02-28T16:11:51;3.10;;;2.17;;
14858;SDS011;7521;51.700;6.874;2023-02-28T16:14:59;3.10;;;2.20;;
14858;SDS011;7521;51.700;6.874;2023-02-28T16:18:07;2.70;;;2.00;;
14858;SDS011;7521;51.700;6.874;2023-02-28T16:21:13;4.40;;;2.30;;
14858;SDS011;7521;51.700;6.874;2023-02-28T16:24:18;3.63;;;2.30;;
14858;SDS011;7521;51.700;6.874;2023-02-28T16:27:28;5.47;;;2.07;;
14858;SDS011;7521;51.700;6.874;2023-02-28T16:30:34;5.20;;;2.50;;
14858;SDS011;7521;51.700;6.874;2023-02-28T16:33:40;8.40;;;2.10;;
14858;SDS011;7521;51.700;6.874;2023-02-28T16:36:46;3.22;;;1.85;;
14858;SDS011;7521;51.700;6.874;2023-02-28T16:39:51;4.53;;;2.00;;
14858;SDS011;7521;51.700;6.874;2023-02-28T16:42:57;3.97;;;2.20;;
14858;SDS011;7521;51.700;6.874;2023-02-28T16:46:03;2.27;;;1.90;;
14858;SDS011;7521;51.700;6.874;2023-02-28T16:49:12;3.60;;;1.93;;
14858;SDS011;7521;51.700;6.874;2023-02-28T16:52:18;3.87;;;2.10;;
14858;SDS011;7521;51.700;6.874;2023-02-28T16:55:23;6.63;;;2.17;;
14858;SDS011;7521;51.700;6.874;2023-02-28T16:58:29;3.77;;;1.73;;
14858;SDS011;7521;51.700;6.874;2023-02-28T17:01:34;5.07;;;2.63;;
14858;SDS011;7521;51.700;6.874;2023-02-28T17:04:39;4.25;;;2.50;;
14858;SDS011;7521;51.700;6.874;2023-02-28T17:07:45;2.95;;;2.15;;
14858;SDS011;7521;51.700;6.874;2023-02-28T17:10:53;5.50;;;2.88;;
14858;SDS011;7521;51.700;6.874;2023-02-28T17:13:59;3.50;;;2.40;;
14858;SDS011;7521;51.700;6.874;2023-02-28T17:17:04;2.88;;;2.10;;
14858;SDS011;7521;51.700;6.874;2023-02-28T17:20:12;6.17;;;2.93;;
14858;SDS011;7521;51.700;6.874;2023-02-28T17:23:17;3.37;;;2.40;;
14858;SDS011;7521;51.700;6.874;2023-02-28T17:26:22;4.35;;;2.60;;
14858;SDS011;7521;51.700;6.874;2023-02-28T17:29:31;4.77;;;2.63;;
14858;SDS011;7521;51.700;6.874;2023-02-28T17:32:36;3.23;;;2.60;;
14858;SDS011;7521;51.700;6.874;2023-02-28T17:35:41;5.75;;;2.92;;
14858;SDS011;7521;51.700;6.874;2023-02-28T17:38:47;4.10;;;2.83;;
14858;SDS011;7521;51.700;6.874;2023-02-28T17:41:52;4.57;;;2.90;;
14858;SDS011;7521;51.700;6.874;2023-02-28T17:44:58;4.23;;;3.27;;
14858;SDS011;7521;51.700;6.874;2023-02-28T17:48:03;8.07;;;3.30;;
14858;SDS011;7521;51.700;6.874;2023-02-28T17:51:09;5.03;;;3.23;;
14858;SDS011;7521;51.700;6.874;2023-02-28T17:54:16;4.47;;;2.90;;
14858;SDS011;7521;51.700;6.874;2023-02-28T17:57:21;5.68;;;3.38;;
14858;SDS011;7521;51.700;6.874;2023-02-28T18:00:26;5.07;;;3.50;;
14858;SDS011;7521;51.700;6.874;2023-02-28T18:03:32;3.83;;;3.17;;
14858;SDS011;7521;51.700;6.874;2023-02-28T18:06:38;5.43;;;3.15;;
14858;SDS011;7521;51.700;6.874;2023-02-28T18:09:54;4.37;;;3.13;;
14858;SDS011;7521;51.700;6.874;2023-02-28T18:12:59;5.85;;;3.75;;
14858;SDS011;7521;51.700;6.874;2023-02-28T18:16:05;4.30;;;3.77;;
14858;SDS011;7521;51.700;6.874;2023-02-28T18:19:10;5.20;;;3.83;;
14858;SDS011;7521;51.700;6.874;2023-02-28T18:22:19;6.27;;;3.47;;
14858;SDS011;7521;51.700;6.874;2023-02-28T18:25:25;7.67;;;3.80;;
14858;SDS011;7521;51.700;6.874;2023-02-28T18:28:30;3.45;;;2.88;;
14858;SDS011;7521;51.700;6.874;2023-02-28T18:31:38;4.70;;;3.30;;
14858;SDS011;7521;51.700;6.874;2023-02-28T18:34:43;5.75;;;3.78;;
14858;SDS011;7521;51.700;6.874;2023-02-28T18:37:48;4.93;;;3.70;;
14858;SDS011;7521;51.700;6.874;2023-02-28T18:40:58;4.93;;;3.40;;
14858;SDS011;7521;51.700;6.874;2023-02-28T18:44:04;5.53;;;3.47;;
14858;SDS011;7521;51.700;6.874;2023-02-28T18:47:10;5.00;;;3.43;;
14858;SDS011;7521;51.700;6.874;2023-02-28T18:50:15;7.90;;;4.22;;
14858;SDS011;7521;51.700;6.874;2023-02-28T18:53:20;6.23;;;3.80;;
14858;SDS011;7521;51.700;6.874;2023-02-28T18:56:25;5.07;;;4.40;;
14858;SDS011;7521;51.700;6.874;2023-02-28T18:59:31;4.22;;;3.70;;
14858;SDS011;7521;51.700;6.874;2023-02-28T19:02:36;4.30;;;3.33;;
14858;SDS011;7521;51.700;6.874;2023-02-28T19:05:41;5.63;;;3.95;;
14858;SDS011;7521;51.700;6.874;2023-02-28T19:08:46;6.90;;;4.73;;
14858;SDS011;7521;51.700;6.874;2023-02-28T19:11:53;4.47;;;3.60;;
14858;SDS011;7521;51.700;6.874;2023-02-28T19:14:58;6.20;;;4.45;;
14858;SDS011;7521;51.700;6.874;2023-02-28T19:18:03;5.77;;;4.30;;
14858;SDS011;7521;51.700;6.874;2023-02-28T19:21:10;6.17;;;4.23;;
14858;SDS011;7521;51.700;6.874;2023-02-28T19:24:15;8.60;;;6.57;;
14858;SDS011;7521;51.700;6.874;2023-02-28T19:27:20;6.10;;;4.57;;
14858;SDS011;7521;51.700;6.874;2023-02-28T19:30:25;5.43;;;3.77;;
14858;SDS011;7521;51.700;6.874;2023-02-28T19:33:31;9.73;;;4.17;;
14858;SDS011;7521;51.700;6.874;2023-02-28T19:36:36;6.67;;;4.80;;
14858;SDS011;7521;51.700;6.874;2023-02-28T19:39:44;6.32;;;3.92;;
14858;SDS011;7521;51.700;6.874;2023-02-28T19:42:49;7.63;;;4.90;;
14858;SDS011;7521;51.700;6.874;2023-02-28T19:45:55;10.90;;;6.87;;
14858;SDS011;7521;51.700;6.874;2023-02-28T19:49:00;5.60;;;4.33;;
14858;SDS011;7521;51.700;6.874;2023-02-28T19:52:05;5.97;;;3.63;;
14858;SDS011;7521;51.700;6.874;2023-02-28T19:55:10;5.23;;;3.83;;
14858;SDS011;7521;51.700;6.874;2023-02-28T19:58:16;6.40;;;4.10;;
14858;SDS011;7521;51.700;6.874;2023-02-28T20:01:21;10.07;;;5.27;;
14858;SDS011;7521;51.700;6.874;2023-02-28T20:04:26;12.15;;;5.32;;
14858;SDS011;7521;51.700;6.874;2023-02-28T20:07:31;6.70;;;5.10;;
14858;SDS011;7521;51.700;6.874;2023-02-28T20:10:37;8.03;;;4.60;;
14858;SDS011;7521;51.700;6.874;2023-02-28T20:13:43;9.80;;;5.23;;
14858;SDS011;7521;51.700;6.874;2023-02-28T20:16:48;6.80;;;4.80;;
14858;SDS011;7521;51.700;6.874;2023-02-28T20:19:53;6.93;;;4.80;;
14858;SDS011;7521;51.700;6.874;2023-02-28T20:22:58;6.43;;;4.00;;
14858;SDS011;7521;51.700;6.874;2023-02-28T20:26:04;7.87;;;4.83;;
14858;SDS011;7521;51.700;6.874;2023-02-28T20:29:09;6.27;;;4.73;;
14858;SDS011;7521;51.700;6.874;2023-02-28T20:32:15;22.80;;;14.97;;
14858;SDS011;7521;51.700;6.874;2023-02-28T20:35:20;10.68;;;6.43;;
14858;SDS011;7521;51.700;6.874;2023-02-28T20:38:26;8.68;;;6.25;;
14858;SDS011;7521;51.700;6.874;2023-02-28T20:41:32;18.27;;;10.43;;
14858;SDS011;7521;51.700;6.874;2023-02-28T20:44:37;13.32;;;6.93;;
14858;SDS011;7521;51.700;6.874;2023-02-28T20:47:42;10.85;;;7.40;;
14858;SDS011;7521;51.700;6.874;2023-02-28T20:50:49;15.07;;;12.00;;
14858;SDS011;7521;51.700;6.874;2023-02-28T20:53:54;10.07;;;7.00;;
14858;SDS011;7521;51.700;6.874;2023-02-28T20:57:00;46.40;;;34.13;;